sensor_id;sensor_type;location;lat;lon;timestamp;P1;durP1;ratioP1;P2;durP2;ratioP2
26620;SDS011;14253;44.840;10.444;2022-08-19T00:00:14;14.05;;;11.60;;
26620;SDS011;14253;44.840;10.444;2022-08-19T00:02:41;16.25;;;11.75;;
26620;SDS011;14253;44.840;10.444;2022-08-19T00:05:08;17.33;;;11.32;;
26620;SDS011;14253;44.840;10.444;2022-08-19T00:07:36;20.40;;;9.95;;
26620;SDS011;14253;44.840;10.444;2022-08-19T00:10:03;17.67;;;11.00;;
26620;SDS011;14253;44.840;10.444;2022-08-19T00:12:31;16.17;;;10.40;;
26620;SDS011;14253;44.840;10.444;2022-08-19T00:14:57;16.15;;;10.88;;
26620;SDS011;14253;44.840;10.444;2022-08-19T00:17:23;13.20;;;10.10;;
26620;SDS011;14253;44.840;10.444;2022-08-19T00:19:49;17.77;;;12.70;;
26620;SDS011;14253;44.840;10.444;2022-08-19T00:22:15;17.92;;;13.07;;
26620;SDS011;14253;44.840;10.444;2022-08-19T00:24:43;23.60;;;13.43;;
26620;SDS011;14253;44.840;10.444;2022-08-19T00:27:11;17.02;;;11.52;;
26620;SDS011;14253;44.840;10.444;2022-08-19T00:29:37;19.70;;;9.30;;
26620;SDS011;14253;44.840;10.444;2022-08-19T00:32:03;15.57;;;8.02;;
26620;SDS011;14253;44.840;10.444;2022-08-19T00:34:30;17.17;;;9.45;;
26620;SDS011;14253;44.840;10.444;2022-08-19T00:36:56;15.40;;;9.93;;
26620;SDS011;14253;44.840;10.444;2022-08-19T00:39:23;14.32;;;8.95;;
26620;SDS011;14253;44.840;10.444;2022-08-19T00:41:49;14.82;;;10.35;;
26620;SDS011;14253;44.840;10.444;2022-08-19T00:44:20;14.45;;;9.25;;
26620;SDS011;14253;44.840;10.444;2022-08-19T00:46:50;15.73;;;9.18;;
26620;SDS011;14253;44.840;10.444;2022-08-19T00:49:22;21.08;;;10.70;;
26620;SDS011;14253;44.840;10.444;2022-08-19T00:51:58;19.48;;;8.85;;
26620;SDS011;14253;44.840;10.444;2022-08-19T00:54:28;15.93;;;9.15;;
26620;SDS011;14253;44.840;10.444;2022-08-19T00:56:57;16.35;;;8.10;;
26620;SDS011;14253;44.840;10.444;2022-08-19T00:59:24;17.95;;;7.68;;
26620;SDS011;14253;44.840;10.444;2022-08-19T01:01:50;17.17;;;9.00;;
26620;SDS011;14253;44.840;10.444;2022-08-19T01:04:17;20.02;;;8.57;;
26620;SDS011;14253;44.840;10.444;2022-08-19T01:06:43;18.13;;;9.07;;
26620;SDS011;14253;44.840;10.444;2022-08-19T01:09:09;16.50;;;8.35;;
26620;SDS011;14253;44.840;10.444;2022-08-19T01:11:39;18.30;;;8.95;;
26620;SDS011;14253;44.840;10.444;2022-08-19T01:14:20;13.40;;;7.32;;
26620;SDS011;14253;44.840;10.444;2022-08-19T01:17:00;14.48;;;8.98;;
26620;SDS011;14253;44.840;10.444;2022-08-19T01:19:34;12.88;;;9.07;;
26620;SDS011;14253;44.840;10.444;2022-08-19T01:22:06;11.15;;;7.75;;
26620;SDS011;14253;44.840;10.444;2022-08-19T01:24:45;15.30;;;8.65;;
26620;SDS011;14253;44.840;10.444;2022-08-19T01:27:11;16.25;;;8.20;;
26620;SDS011;14253;44.840;10.444;2022-08-19T01:29:38;13.65;;;7.80;;
26620;SDS011;14253;44.840;10.444;2022-08-19T01:32:11;13.23;;;7.40;;
26620;SDS011;14253;44.840;10.444;2022-08-19T01:34:39;14.07;;;8.07;;
26620;SDS011;14253;44.840;10.444;2022-08-19T01:37:12;11.85;;;6.55;;
26620;SDS011;14253;44.840;10.444;2022-08-19T01:39:39;16.98;;;8.32;;
26620;SDS011;14253;44.840;10.444;2022-08-19T01:42:07;16.02;;;8.52;;
26620;SDS011;14253;44.840;10.444;2022-08-19T01:44:35;13.23;;;7.93;;
26620;SDS011;14253;44.840;10.444;2022-08-19T01:47:01;12.38;;;7.93;;
26620;SDS011;14253;44.840;10.444;2022-08-19T01:49:29;13.57;;;7.88;;
26620;SDS011;14253;44.840;10.444;2022-08-19T01:51:55;17.13;;;10.05;;
26620;SDS011;14253;44.840;10.444;2022-08-19T01:54:22;15.73;;;9.65;;
26620;SDS011;14253;44.840;10.444;2022-08-19T01:56:50;15.82;;;9.02;;
26620;SDS011;14253;44.840;10.444;2022-08-19T01:59:19;13.82;;;9.07;;
26620;SDS011;14253;44.840;10.444;2022-08-19T02:01:47;17.77;;;10.27;;
26620;SDS011;14253;44.840;10.444;2022-08-19T02:04:13;14.43;;;9.00;;
26620;SDS011;14253;44.840;10.444;2022-08-19T02:06:39;20.83;;;10.48;;
26620;SDS011;14253;44.840;10.444;2022-08-19T02:09:05;16.95;;;10.25;;
26620;SDS011;14253;44.840;10.444;2022-08-19T02:11:34;16.80;;;9.75;;
26620;SDS011;14253;44.840;10.444;2022-08-19T02:14:03;18.40;;;10.82;;
26620;SDS011;14253;44.840;10.444;2022-08-19T02:16:31;19.38;;;10.52;;
26620;SDS011;14253;44.840;10.444;2022-08-19T02:18:57;19.35;;;10.00;;
26620;SDS011;14253;44.840;10.444;2022-08-19T02:21:27;23.83;;;12.40;;
26620;SDS011;14253;44.840;10.444;2022-08-19T02:23:55;24.25;;;12.02;;
26620;SDS011;14253;44.840;10.444;2022-08-19T02:26:21;19.83;;;11.70;;
26620;SDS011;14253;44.840;10.444;2022-08-19T02:28:47;16.88;;;11.43;;
26620;SDS011;14253;44.840;10.444;2022-08-19T02:31:15;17.50;;;11.40;;
26620;SDS011;14253;44.840;10.444;2022-08-19T02:33:44;23.52;;;12.80;;
26620;SDS011;14253;44.840;10.444;2022-08-19T02:36:11;19.45;;;11.77;;
26620;SDS011;14253;44.840;10.444;2022-08-19T02:38:37;22.08;;;13.75;;
26620;SDS011;14253;44.840;10.444;2022-08-19T02:41:06;23.63;;;13.73;;
26620;SDS011;14253;44.840;10.444;2022-08-19T02:43:36;31.13;;;15.02;;
26620;SDS011;14253;44.840;10.444;2022-08-19T02:46:14;22.27;;;14.40;;
26620;SDS011;14253;44.840;10.444;2022-08-19T02:48:49;19.83;;;12.10;;
26620;SDS011;14253;44.840;10.444;2022-08-19T02:51:23;26.63;;;14.18;;
26620;SDS011;14253;44.840;10.444;2022-08-19T02:53:52;11.70;;;6.32;;
26620;SDS011;14253;44.840;10.444;2022-08-19T02:56:19;16.50;;;7.10;;
26620;SDS011;14253;44.840;10.444;2022-08-19T02:58:46;13.25;;;5.32;;
26620;SDS011;14253;44.840;10.444;2022-08-19T03:01:20;7.75;;;4.10;;
26620;SDS011;14253;44.840;10.444;2022-08-19T03:03:47;7.63;;;3.50;;
26620;SDS011;14253;44.840;10.444;2022-08-19T03:06:14;7.80;;;3.55;;
26620;SDS011;14253;44.840;10.444;2022-08-19T03:08:42;15.80;;;3.88;;
26620;SDS011;14253;44.840;10.444;2022-08-19T03:11:19;10.25;;;4.63;;
26620;SDS011;14253;44.840;10.444;2022-08-19T03:13:50;19.47;;;4.33;;
26620;SDS011;14253;44.840;10.444;2022-08-19T03:16:17;20.90;;;3.97;;
26620;SDS011;14253;44.840;10.444;2022-08-19T03:18:45;10.10;;;3.45;;
26620;SDS011;14253;44.840;10.444;2022-08-19T03:21:15;10.75;;;4.00;;
26620;SDS011;14253;44.840;10.444;2022-08-19T03:23:43;12.57;;;3.60;;
26620;SDS011;14253;44.840;10.444;2022-08-19T03:26:09;11.60;;;2.10;;
26620;SDS011;14253;44.840;10.444;2022-08-19T03:28:35;7.90;;;2.20;;
26620;SDS011;14253;44.840;10.444;2022-08-19T03:31:06;5.43;;;1.90;;
26620;SDS011;14253;44.840;10.444;2022-08-19T03:33:35;9.52;;;2.30;;
26620;SDS011;14253;44.840;10.444;2022-08-19T03:36:07;10.60;;;2.33;;
26620;SDS011;14253;44.840;10.444;2022-08-19T03:38:41;6.75;;;1.70;;
26620;SDS011;14253;44.840;10.444;2022-08-19T03:41:11;9.35;;;2.20;;
26620;SDS011;14253;44.840;10.444;2022-08-19T03:43:40;6.00;;;1.60;;
26620;SDS011;14253;44.840;10.444;2022-08-19T03:46:08;10.57;;;2.33;;
26620;SDS011;14253;44.840;10.444;2022-08-19T03:48:36;5.95;;;2.22;;
26620;SDS011;14253;44.840;10.444;2022-08-19T03:51:04;6.53;;;2.63;;
26620;SDS011;14253;44.840;10.444;2022-08-19T03:53:31;8.48;;;2.53;;
26620;SDS011;14253;44.840;10.444;2022-08-19T03:55:58;8.00;;;2.05;;
26620;SDS011;14253;44.840;10.444;2022-08-19T03:58:25;16.98;;;2.58;;
26620;SDS011;14253;44.840;10.444;2022-08-19T04:00:54;7.90;;;2.17;;
26620;SDS011;14253;44.840;10.444;2022-08-19T04:03:22;8.82;;;2.65;;
26620;SDS011;14253;44.840;10.444;2022-08-19T04:05:49;8.52;;;2.78;;
26620;SDS011;14253;44.840;10.444;2022-08-19T04:08:15;14.02;;;2.97;;
26620;SDS011;14253;44.840;10.444;2022-08-19T04:10:48;8.07;;;2.65;;
26620;SDS011;14253;44.840;10.444;2022-08-19T04:13:18;8.63;;;3.10;;
26620;SDS011;14253;44.840;10.444;2022-08-19T04:15:44;11.23;;;2.67;;
26620;SDS011;14253;44.840;10.444;2022-08-19T04:18:12;11.30;;;2.85;;
26620;SDS011;14253;44.840;10.444;2022-08-19T04:20:44;6.25;;;2.60;;
26620;SDS011;14253;44.840;10.444;2022-08-19T04:23:13;5.75;;;2.05;;
26620;SDS011;14253;44.840;10.444;2022-08-19T04:25:40;5.50;;;2.20;;
26620;SDS011;14253;44.840;10.444;2022-08-19T04:28:08;7.63;;;2.67;;
26620;SDS011;14253;44.840;10.444;2022-08-19T04:30:43;12.13;;;2.95;;
26620;SDS011;14253;44.840;10.444;2022-08-19T04:33:13;8.82;;;3.28;;
26620;SDS011;14253;44.840;10.444;2022-08-19T04:35:41;6.47;;;2.45;;
26620;SDS011;14253;44.840;10.444;2022-08-19T04:38:09;6.63;;;2.38;;
26620;SDS011;14253;44.840;10.444;2022-08-19T04:40:42;3.92;;;1.65;;
26620;SDS011;14253;44.840;10.444;2022-08-19T04:43:28;4.55;;;1.50;;
26620;SDS011;14253;44.840;10.444;2022-08-19T04:45:55;4.60;;;1.40;;
26620;SDS011;14253;44.840;10.444;2022-08-19T04:48:21;6.38;;;1.58;;
26620;SDS011;14253;44.840;10.444;2022-08-19T04:50:54;4.65;;;1.10;;
26620;SDS011;14253;44.840;10.444;2022-08-19T04:53:25;10.38;;;2.10;;
26620;SDS011;14253;44.840;10.444;2022-08-19T04:55:57;8.57;;;2.40;;
26620;SDS011;14253;44.840;10.444;2022-08-19T04:58:25;6.43;;;2.47;;
26620;SDS011;14253;44.840;10.444;2022-08-19T05:00:52;8.63;;;2.50;;
26620;SDS011;14253;44.840;10.444;2022-08-19T05:03:19;9.32;;;3.03;;
26620;SDS011;14253;44.840;10.444;2022-08-19T05:05:46;9.18;;;2.72;;
26620;SDS011;14253;44.840;10.444;2022-08-19T05:08:14;5.22;;;2.90;;
26620;SDS011;14253;44.840;10.444;2022-08-19T05:10:46;8.32;;;3.05;;
26620;SDS011;14253;44.840;10.444;2022-08-19T05:13:15;4.22;;;2.17;;
26620;SDS011;14253;44.840;10.444;2022-08-19T05:15:43;5.03;;;2.33;;
26620;SDS011;14253;44.840;10.444;2022-08-19T05:18:09;6.15;;;1.83;;
26620;SDS011;14253;44.840;10.444;2022-08-19T05:20:54;3.25;;;1.38;;
26620;SDS011;14253;44.840;10.444;2022-08-19T05:23:39;3.15;;;1.15;;
26620;SDS011;14253;44.840;10.444;2022-08-19T05:26:06;4.25;;;1.42;;
26620;SDS011;14253;44.840;10.444;2022-08-19T05:28:32;4.45;;;1.58;;
26620;SDS011;14253;44.840;10.444;2022-08-19T05:30:58;3.08;;;1.40;;
26620;SDS011;14253;44.840;10.444;2022-08-19T05:33:23;4.10;;;1.60;;
26620;SDS011;14253;44.840;10.444;2022-08-19T05:35:49;2.63;;;1.35;;
26620;SDS011;14253;44.840;10.444;2022-08-19T05:38:16;4.97;;;1.50;;
26620;SDS011;14253;44.840;10.444;2022-08-19T05:40:42;3.53;;;1.17;;
26620;SDS011;14253;44.840;10.444;2022-08-19T05:43:12;2.83;;;1.00;;
26620;SDS011;14253;44.840;10.444;2022-08-19T05:45:41;3.90;;;1.15;;
26620;SDS011;14253;44.840;10.444;2022-08-19T05:48:08;2.53;;;1.00;;
26620;SDS011;14253;44.840;10.444;2022-08-19T05:50:36;4.22;;;1.27;;
26620;SDS011;14253;44.840;10.444;2022-08-19T05:53:04;2.72;;;1.02;;
26620;SDS011;14253;44.840;10.444;2022-08-19T05:55:30;2.05;;;1.10;;
26620;SDS011;14253;44.840;10.444;2022-08-19T05:57:56;2.88;;;0.85;;
26620;SDS011;14253;44.840;10.444;2022-08-19T06:00:22;2.88;;;0.75;;
26620;SDS011;14253;44.840;10.444;2022-08-19T06:02:48;2.25;;;0.80;;
26620;SDS011;14253;44.840;10.444;2022-08-19T06:05:16;2.42;;;0.90;;
26620;SDS011;14253;44.840;10.444;2022-08-19T06:07:42;3.33;;;0.82;;
26620;SDS011;14253;44.840;10.444;2022-08-19T06:10:09;3.85;;;0.95;;
26620;SDS011;14253;44.840;10.444;2022-08-19T06:12:36;2.97;;;1.10;;
26620;SDS011;14253;44.840;10.444;2022-08-19T06:15:05;3.25;;;1.15;;
26620;SDS011;14253;44.840;10.444;2022-08-19T06:17:36;3.80;;;1.50;;
26620;SDS011;14253;44.840;10.444;2022-08-19T06:20:03;4.35;;;2.17;;
26620;SDS011;14253;44.840;10.444;2022-08-19T06:22:39;3.30;;;1.38;;
26620;SDS011;14253;44.840;10.444;2022-08-19T06:25:07;3.97;;;1.40;;
26620;SDS011;14253;44.840;10.444;2022-08-19T06:27:34;5.85;;;1.40;;
26620;SDS011;14253;44.840;10.444;2022-08-19T06:30:01;3.78;;;2.05;;
26620;SDS011;14253;44.840;10.444;2022-08-19T06:32:28;9.02;;;1.85;;
26620;SDS011;14253;44.840;10.444;2022-08-19T06:34:55;6.68;;;1.60;;
26620;SDS011;14253;44.840;10.444;2022-08-19T06:37:21;6.25;;;1.85;;
26620;SDS011;14253;44.840;10.444;2022-08-19T06:39:47;3.65;;;1.80;;
26620;SDS011;14253;44.840;10.444;2022-08-19T06:42:14;5.15;;;1.45;;
26620;SDS011;14253;44.840;10.444;2022-08-19T06:44:45;2.65;;;1.23;;
26620;SDS011;14253;44.840;10.444;2022-08-19T06:47:14;3.03;;;1.40;;
26620;SDS011;14253;44.840;10.444;2022-08-19T06:52:10;6.07;;;1.08;;
26620;SDS011;14253;44.840;10.444;2022-08-19T06:54:37;3.97;;;1.17;;
26620;SDS011;14253;44.840;10.444;2022-08-19T06:57:04;13.65;;;1.58;;
26620;SDS011;14253;44.840;10.444;2022-08-19T06:59:32;5.10;;;1.50;;
26620;SDS011;14253;44.840;10.444;2022-08-19T07:02:00;1.95;;;1.25;;
26620;SDS011;14253;44.840;10.444;2022-08-19T07:04:31;3.00;;;1.02;;
26620;SDS011;14253;44.840;10.444;2022-08-19T07:07:00;3.83;;;1.23;;
26620;SDS011;14253;44.840;10.444;2022-08-19T07:09:28;2.67;;;1.38;;
26620;SDS011;14253;44.840;10.444;2022-08-19T07:11:54;3.75;;;1.00;;
26620;SDS011;14253;44.840;10.444;2022-08-19T07:14:22;3.97;;;1.20;;
26620;SDS011;14253;44.840;10.444;2022-08-19T07:16:52;3.13;;;1.35;;
26620;SDS011;14253;44.840;10.444;2022-08-19T07:21:52;3.42;;;1.10;;
26620;SDS011;14253;44.840;10.444;2022-08-19T07:24:20;2.00;;;1.30;;
26620;SDS011;14253;44.840;10.444;2022-08-19T07:26:51;2.90;;;1.45;;
26620;SDS011;14253;44.840;10.444;2022-08-19T07:29:19;3.92;;;2.00;;
26620;SDS011;14253;44.840;10.444;2022-08-19T07:31:48;3.75;;;1.80;;
26620;SDS011;14253;44.840;10.444;2022-08-19T07:34:15;5.03;;;2.03;;
26620;SDS011;14253;44.840;10.444;2022-08-19T07:36:42;7.22;;;2.88;;
26620;SDS011;14253;44.840;10.444;2022-08-19T07:39:19;4.60;;;2.30;;
26620;SDS011;14253;44.840;10.444;2022-08-19T07:41:47;8.68;;;3.13;;
26620;SDS011;14253;44.840;10.444;2022-08-19T07:44:15;6.00;;;2.92;;
26620;SDS011;14253;44.840;10.444;2022-08-19T07:46:45;4.68;;;2.28;;
26620;SDS011;14253;44.840;10.444;2022-08-19T07:51:52;3.63;;;2.47;;
26620;SDS011;14253;44.840;10.444;2022-08-19T07:54:20;4.03;;;2.20;;
26620;SDS011;14253;44.840;10.444;2022-08-19T07:56:47;3.92;;;2.13;;
26620;SDS011;14253;44.840;10.444;2022-08-19T07:59:16;4.72;;;2.25;;
26620;SDS011;14253;44.840;10.444;2022-08-19T08:01:43;4.75;;;2.38;;
26620;SDS011;14253;44.840;10.444;2022-08-19T08:04:09;3.42;;;2.00;;
26620;SDS011;14253;44.840;10.444;2022-08-19T08:06:54;4.60;;;2.00;;
26620;SDS011;14253;44.840;10.444;2022-08-19T08:09:40;3.65;;;1.70;;
26620;SDS011;14253;44.840;10.444;2022-08-19T08:12:11;2.47;;;1.35;;
26620;SDS011;14253;44.840;10.444;2022-08-19T08:14:44;2.30;;;1.00;;
26620;SDS011;14253;44.840;10.444;2022-08-19T08:17:13;2.33;;;1.10;;
26620;SDS011;14253;44.840;10.444;2022-08-19T08:19:40;2.80;;;1.15;;
26620;SDS011;14253;44.840;10.444;2022-08-19T08:22:07;2.83;;;0.85;;
26620;SDS011;14253;44.840;10.444;2022-08-19T08:24:55;3.45;;;1.48;;
26620;SDS011;14253;44.840;10.444;2022-08-19T08:27:23;2.97;;;1.98;;
26620;SDS011;14253;44.840;10.444;2022-08-19T08:29:50;2.40;;;1.33;;
26620;SDS011;14253;44.840;10.444;2022-08-19T08:32:15;3.33;;;2.22;;
26620;SDS011;14253;44.840;10.444;2022-08-19T08:34:42;4.72;;;1.83;;
26620;SDS011;14253;44.840;10.444;2022-08-19T08:37:08;3.55;;;1.67;;
26620;SDS011;14253;44.840;10.444;2022-08-19T08:39:34;4.50;;;1.88;;
26620;SDS011;14253;44.840;10.444;2022-08-19T08:42:07;3.92;;;2.25;;
26620;SDS011;14253;44.840;10.444;2022-08-19T08:44:58;4.55;;;2.42;;
26620;SDS011;14253;44.840;10.444;2022-08-19T08:47:28;6.35;;;2.45;;
26620;SDS011;14253;44.840;10.444;2022-08-19T08:52:47;3.20;;;2.10;;
26620;SDS011;14253;44.840;10.444;2022-08-19T08:55:18;3.58;;;1.48;;
26620;SDS011;14253;44.840;10.444;2022-08-19T09:00:25;2.55;;;1.50;;
26620;SDS011;14253;44.840;10.444;2022-08-19T09:02:54;2.45;;;1.42;;
26620;SDS011;14253;44.840;10.444;2022-08-19T09:05:21;3.50;;;1.38;;
26620;SDS011;14253;44.840;10.444;2022-08-19T09:08:03;1.52;;;0.75;;
26620;SDS011;14253;44.840;10.444;2022-08-19T09:10:57;1.35;;;0.80;;
26620;SDS011;14253;44.840;10.444;2022-08-19T09:13:38;1.63;;;0.70;;
26620;SDS011;14253;44.840;10.444;2022-08-19T09:16:19;3.70;;;0.82;;
26620;SDS011;14253;44.840;10.444;2022-08-19T09:18:50;2.00;;;0.98;;
26620;SDS011;14253;44.840;10.444;2022-08-19T09:21:19;2.05;;;0.90;;
26620;SDS011;14253;44.840;10.444;2022-08-19T09:23:48;1.70;;;0.50;;
26620;SDS011;14253;44.840;10.444;2022-08-19T09:26:16;3.10;;;1.00;;
26620;SDS011;14253;44.840;10.444;2022-08-19T09:28:44;4.18;;;1.10;;
26620;SDS011;14253;44.840;10.444;2022-08-19T09:31:12;3.28;;;1.50;;
26620;SDS011;14253;44.840;10.444;2022-08-19T09:33:40;3.45;;;1.30;;
26620;SDS011;14253;44.840;10.444;2022-08-19T09:36:09;3.38;;;1.25;;
26620;SDS011;14253;44.840;10.444;2022-08-19T09:38:38;2.08;;;0.77;;
26620;SDS011;14253;44.840;10.444;2022-08-19T09:41:09;1.88;;;0.90;;
26620;SDS011;14253;44.840;10.444;2022-08-19T09:43:41;0.73;;;0.57;;
26620;SDS011;14253;44.840;10.444;2022-08-19T09:46:09;3.42;;;0.70;;
26620;SDS011;14253;44.840;10.444;2022-08-19T09:48:38;2.53;;;0.80;;
26620;SDS011;14253;44.840;10.444;2022-08-19T09:51:11;1.70;;;0.93;;
26620;SDS011;14253;44.840;10.444;2022-08-19T09:53:41;1.50;;;0.40;;
26620;SDS011;14253;44.840;10.444;2022-08-19T09:56:08;3.30;;;0.52;;
26620;SDS011;14253;44.840;10.444;2022-08-19T09:58:34;4.10;;;0.90;;
26620;SDS011;14253;44.840;10.444;2022-08-19T10:01:01;1.90;;;0.90;;
26620;SDS011;14253;44.840;10.444;2022-08-19T10:03:29;2.53;;;0.52;;
26620;SDS011;14253;44.840;10.444;2022-08-19T10:05:56;1.02;;;0.35;;
26620;SDS011;14253;44.840;10.444;2022-08-19T10:08:24;1.98;;;0.45;;
26620;SDS011;14253;44.840;10.444;2022-08-19T10:10:54;2.05;;;0.60;;
26620;SDS011;14253;44.840;10.444;2022-08-19T10:13:22;1.02;;;0.32;;
26620;SDS011;14253;44.840;10.444;2022-08-19T10:15:51;1.60;;;0.52;;
26620;SDS011;14253;44.840;10.444;2022-08-19T10:18:19;1.98;;;0.75;;
26620;SDS011;14253;44.840;10.444;2022-08-19T10:20:47;0.60;;;0.30;;
26620;SDS011;14253;44.840;10.444;2022-08-19T10:23:15;1.38;;;0.50;;
26620;SDS011;14253;44.840;10.444;2022-08-19T10:25:42;2.53;;;0.60;;
26620;SDS011;14253;44.840;10.444;2022-08-19T10:28:09;4.63;;;0.60;;
26620;SDS011;14253;44.840;10.444;2022-08-19T10:30:39;1.60;;;0.70;;
26620;SDS011;14253;44.840;10.444;2022-08-19T10:33:06;0.98;;;0.40;;
26620;SDS011;14253;44.840;10.444;2022-08-19T10:35:32;3.15;;;0.70;;
26620;SDS011;14253;44.840;10.444;2022-08-19T10:37:58;1.08;;;0.43;;
26620;SDS011;14253;44.840;10.444;2022-08-19T10:40:27;1.33;;;0.50;;
26620;SDS011;14253;44.840;10.444;2022-08-19T10:42:56;0.88;;;0.43;;
26620;SDS011;14253;44.840;10.444;2022-08-19T10:45:22;1.77;;;0.50;;
26620;SDS011;14253;44.840;10.444;2022-08-19T10:47:52;1.63;;;0.40;;
26620;SDS011;14253;44.840;10.444;2022-08-19T10:50:18;1.55;;;0.43;;
26620;SDS011;14253;44.840;10.444;2022-08-19T10:53:03;1.17;;;0.28;;
26620;SDS011;14253;44.840;10.444;2022-08-19T10:55:31;1.25;;;0.70;;
26620;SDS011;14253;44.840;10.444;2022-08-19T10:58:17;1.55;;;0.43;;
26620;SDS011;14253;44.840;10.444;2022-08-19T11:00:51;2.65;;;0.50;;
26620;SDS011;14253;44.840;10.444;2022-08-19T11:03:19;1.42;;;0.47;;
26620;SDS011;14253;44.840;10.444;2022-08-19T11:05:45;3.17;;;1.48;;
26620;SDS011;14253;44.840;10.444;2022-08-19T11:08:11;1.17;;;0.55;;
26620;SDS011;14253;44.840;10.444;2022-08-19T11:10:41;1.17;;;0.47;;
26620;SDS011;14253;44.840;10.444;2022-08-19T11:13:07;1.05;;;0.30;;
26620;SDS011;14253;44.840;10.444;2022-08-19T11:15:33;0.95;;;0.50;;
26620;SDS011;14253;44.840;10.444;2022-08-19T11:17:59;0.80;;;0.30;;
26620;SDS011;14253;44.840;10.444;2022-08-19T11:20:25;1.65;;;0.45;;
26620;SDS011;14253;44.840;10.444;2022-08-19T11:22:52;1.10;;;0.38;;
26620;SDS011;14253;44.840;10.444;2022-08-19T11:25:21;3.58;;;0.60;;
26620;SDS011;14253;44.840;10.444;2022-08-19T11:27:47;1.35;;;0.40;;
26620;SDS011;14253;44.840;10.444;2022-08-19T11:30:16;4.35;;;1.00;;
26620;SDS011;14253;44.840;10.444;2022-08-19T11:32:42;1.48;;;0.80;;
26620;SDS011;14253;44.840;10.444;2022-08-19T11:35:08;3.70;;;0.93;;
26620;SDS011;14253;44.840;10.444;2022-08-19T11:37:35;1.48;;;0.50;;
26620;SDS011;14253;44.840;10.444;2022-08-19T11:40:04;3.45;;;1.00;;
26620;SDS011;14253;44.840;10.444;2022-08-19T11:42:31;1.33;;;0.40;;
26620;SDS011;14253;44.840;10.444;2022-08-19T11:45:15;1.50;;;0.60;;
26620;SDS011;14253;44.840;10.444;2022-08-19T11:47:41;1.40;;;0.40;;
26620;SDS011;14253;44.840;10.444;2022-08-19T11:50:08;2.15;;;0.50;;
26620;SDS011;14253;44.840;10.444;2022-08-19T11:52:34;1.30;;;0.55;;
26620;SDS011;14253;44.840;10.444;2022-08-19T11:55:02;2.45;;;0.60;;
26620;SDS011;14253;44.840;10.444;2022-08-19T11:57:28;0.85;;;0.30;;
26620;SDS011;14253;44.840;10.444;2022-08-19T11:59:54;2.08;;;0.50;;
26620;SDS011;14253;44.840;10.444;2022-08-19T12:02:20;2.45;;;0.70;;
26620;SDS011;14253;44.840;10.444;2022-08-19T12:04:46;3.55;;;0.60;;
26620;SDS011;14253;44.840;10.444;2022-08-19T12:07:13;1.58;;;0.57;;
26620;SDS011;14253;44.840;10.444;2022-08-19T12:09:39;1.52;;;0.57;;
26620;SDS011;14253;44.840;10.444;2022-08-19T12:12:05;2.13;;;0.55;;
26620;SDS011;14253;44.840;10.444;2022-08-19T12:14:31;2.78;;;0.52;;
26620;SDS011;14253;44.840;10.444;2022-08-19T12:16:57;1.33;;;0.70;;
26620;SDS011;14253;44.840;10.444;2022-08-19T12:19:23;4.70;;;0.60;;
26620;SDS011;14253;44.840;10.444;2022-08-19T12:21:50;3.83;;;0.77;;
26620;SDS011;14253;44.840;10.444;2022-08-19T12:24:19;1.30;;;0.40;;
26620;SDS011;14253;44.840;10.444;2022-08-19T12:26:48;0.65;;;0.35;;
26620;SDS011;14253;44.840;10.444;2022-08-19T12:29:14;1.55;;;0.40;;
26620;SDS011;14253;44.840;10.444;2022-08-19T12:31:40;0.75;;;0.35;;
26620;SDS011;14253;44.840;10.444;2022-08-19T12:34:06;2.20;;;0.45;;
26620;SDS011;14253;44.840;10.444;2022-08-19T12:36:32;2.38;;;0.57;;
26620;SDS011;14253;44.840;10.444;2022-08-19T12:38:59;1.27;;;0.50;;
26620;SDS011;14253;44.840;10.444;2022-08-19T12:41:25;2.83;;;0.47;;
26620;SDS011;14253;44.840;10.444;2022-08-19T12:43:51;1.75;;;0.50;;
26620;SDS011;14253;44.840;10.444;2022-08-19T12:46:18;1.73;;;0.63;;
26620;SDS011;14253;44.840;10.444;2022-08-19T12:48:45;1.25;;;0.60;;
26620;SDS011;14253;44.840;10.444;2022-08-19T12:51:12;1.83;;;0.60;;
26620;SDS011;14253;44.840;10.444;2022-08-19T12:53:41;2.95;;;0.52;;
26620;SDS011;14253;44.840;10.444;2022-08-19T12:56:08;1.58;;;0.57;;
26620;SDS011;14253;44.840;10.444;2022-08-19T12:58:35;0.82;;;0.30;;
26620;SDS011;14253;44.840;10.444;2022-08-19T13:01:09;3.92;;;0.47;;
26620;SDS011;14253;44.840;10.444;2022-08-19T13:03:41;2.53;;;0.85;;
26620;SDS011;14253;44.840;10.444;2022-08-19T13:06:09;1.60;;;0.60;;
26620;SDS011;14253;44.840;10.444;2022-08-19T13:08:35;1.50;;;0.52;;
26620;SDS011;14253;44.840;10.444;2022-08-19T13:11:11;3.42;;;0.60;;
26620;SDS011;14253;44.840;10.444;2022-08-19T13:13:40;1.38;;;0.50;;
26620;SDS011;14253;44.840;10.444;2022-08-19T13:16:08;2.13;;;0.80;;
26620;SDS011;14253;44.840;10.444;2022-08-19T13:18:36;2.25;;;0.63;;
26620;SDS011;14253;44.840;10.444;2022-08-19T13:21:03;0.68;;;0.45;;
26620;SDS011;14253;44.840;10.444;2022-08-19T13:23:31;2.40;;;0.70;;
26620;SDS011;14253;44.840;10.444;2022-08-19T13:25:59;3.53;;;0.82;;
26620;SDS011;14253;44.840;10.444;2022-08-19T13:28:27;2.55;;;0.68;;
26620;SDS011;14253;44.840;10.444;2022-08-19T13:31:14;1.70;;;0.50;;
26620;SDS011;14253;44.840;10.444;2022-08-19T13:34:00;1.35;;;0.60;;
26620;SDS011;14253;44.840;10.444;2022-08-19T13:36:26;1.75;;;0.45;;
26620;SDS011;14253;44.840;10.444;2022-08-19T13:38:52;5.55;;;0.70;;
26620;SDS011;14253;44.840;10.444;2022-08-19T13:41:18;1.48;;;0.40;;
26620;SDS011;14253;44.840;10.444;2022-08-19T13:43:44;5.00;;;0.75;;
26620;SDS011;14253;44.840;10.444;2022-08-19T13:46:11;2.47;;;0.50;;
26620;SDS011;14253;44.840;10.444;2022-08-19T13:48:40;0.85;;;0.32;;
26620;SDS011;14253;44.840;10.444;2022-08-19T13:51:07;2.47;;;0.63;;
26620;SDS011;14253;44.840;10.444;2022-08-19T13:53:36;0.98;;;0.50;;
26620;SDS011;14253;44.840;10.444;2022-08-19T13:56:07;2.20;;;1.02;;
26620;SDS011;14253;44.840;10.444;2022-08-19T13:58:35;2.25;;;0.43;;
26620;SDS011;14253;44.840;10.444;2022-08-19T14:01:02;0.98;;;0.30;;
26620;SDS011;14253;44.840;10.444;2022-08-19T14:03:29;3.35;;;0.45;;
26620;SDS011;14253;44.840;10.444;2022-08-19T14:05:56;0.65;;;0.40;;
26620;SDS011;14253;44.840;10.444;2022-08-19T14:08:22;0.90;;;0.40;;
26620;SDS011;14253;44.840;10.444;2022-08-19T14:10:48;1.35;;;0.30;;
26620;SDS011;14253;44.840;10.444;2022-08-19T14:13:18;2.40;;;0.35;;
26620;SDS011;14253;44.840;10.444;2022-08-19T14:15:46;1.10;;;0.40;;
26620;SDS011;14253;44.840;10.444;2022-08-19T14:18:12;1.05;;;0.30;;
26620;SDS011;14253;44.840;10.444;2022-08-19T14:20:40;1.13;;;0.40;;
26620;SDS011;14253;44.840;10.444;2022-08-19T14:23:06;1.05;;;0.40;;
26620;SDS011;14253;44.840;10.444;2022-08-19T14:25:34;1.83;;;0.30;;
26620;SDS011;14253;44.840;10.444;2022-08-19T14:28:01;0.30;;;0.28;;
26620;SDS011;14253;44.840;10.444;2022-08-19T14:30:28;2.35;;;0.40;;
26620;SDS011;14253;44.840;10.444;2022-08-19T14:32:59;2.08;;;0.65;;
26620;SDS011;14253;44.840;10.444;2022-08-19T14:35:27;2.55;;;0.47;;
26620;SDS011;14253;44.840;10.444;2022-08-19T14:37:55;1.05;;;0.50;;
26620;SDS011;14253;44.840;10.444;2022-08-19T14:40:23;1.73;;;0.22;;
26620;SDS011;14253;44.840;10.444;2022-08-19T14:42:51;1.90;;;0.57;;
26620;SDS011;14253;44.840;10.444;2022-08-19T14:45:20;1.35;;;0.50;;
26620;SDS011;14253;44.840;10.444;2022-08-19T14:47:46;1.80;;;0.55;;
26620;SDS011;14253;44.840;10.444;2022-08-19T14:50:12;0.73;;;0.40;;
26620;SDS011;14253;44.840;10.444;2022-08-19T14:52:40;1.85;;;0.60;;